Terminal Aerodrome Forecast
Issued by NWS

Home | Current Version | Previous Version | Text Only | Print | Product List | Glossary On
Versions: 1 2 3 4 5 6 7 8 9 10 11 12 13 14
000
FTUS46 KPDT 240500
TAFYKM
TAF
KYKM 240520Z 2406/2506 28006KT P6SM SCT070 OVC120
     FM242000 10006KT P6SM BKN070 OVC120
     FM250100 VRB04KT P6SM -RA OVC050=

USA.gov is the U.S. government's official web portal to all federal, state and local government web resources and services.